Thunderstorms From: 25-05-2018 23:09 Until: 26-05-2018 15:00 warning for: Thunderstorms Level: Yellow info button

Although rather usual in this region, locally or potentially dangerous phenomena are expected. (such as local winds, summer thunderstorms, rising streams or high waves) Be aware and pay attention to the latest weather updates, especially if you carry out activities exposed to weather or close to a stream or shoreline. 


Meteo18 Weather Cam more information Meteo18 Weather Cam


warning for Thunderstorms more information blitzortung!


Rain radar more information rain snow radar


Visit our other weather sites:

Template documentation
and downloads

And another site



Weather Underground History page Text

Daily Summary for January 18, 2017 Units:  English    Metric   Both
« Previous Day
Next Day »
Daily Weekly Monthly Yearly Custom
  High: Low: Average:
Temperature: TemperatureC °F -5.2 °F -3.3 °F
Dew Point: DewpointC °F -7.5 °F -6.3 °F
Humidity: Humidity % 71 % 79 %
Wind Speed: WindSpeedKMH mph 0.0 mph 10.8 mph
Wind Gust: WindSpeedGustKMH mph - -
Wind:- - East
Pressure: PressurehPa in 1029.7 in -
Precipitation: 0.0 in    
Historical Graphs
 
 
Tabular Data for January 18, 2017
Time Temperature Dew Point Pressure Wind Wind Speed Wind Gust Humidity Rainfall Rate (Hourly)
TemperatureC °F DewpointC °F PressurehPa in Calm     Humidity % HourlyPrecipMM in
00:02 -3.7 °F -6.8 °F 1030.7 in NE 24.1 mph 33.8 mph 79 % 0.0 in
00:12 -3.7 °F -6.8 °F 1030.7 in NNE 25.7 mph 33.8 mph 79 % 0.0 in
00:17 -3.7 °F -6.8 °F 1030.7 in NNE 20.9 mph 33.8 mph 79 % 0.0 in
00:22 -3.8 °F -6.9 °F 1030.7 in NE 17.7 mph 33.8 mph 79 % 0.0 in
00:27 -3.8 °F -6.9 °F 1030.7 in NNE 9.7 mph 33.8 mph 79 % 0.0 in
00:32 -3.8 °F -6.7 °F 1030.7 in NNE 11.3 mph 30.6 mph 80 % 0.0 in
00:37 -3.9 °F -6.8 °F 1030.7 in NNW 9.7 mph 30.6 mph 80 % 0.0 in
00:42 -3.9 °F -6.8 °F 1030.7 in NNE 12.9 mph 30.6 mph 80 % 0.0 in
00:47 -3.9 °F -6.8 °F 1030.7 in NE 12.9 mph 29.0 mph 80 % 0.0 in
00:52 -4.0 °F -6.9 °F 1030.7 in ENE 16.1 mph 27.4 mph 80 % 0.0 in
00:57 -4.0 °F -6.9 °F 1030.7 in NNE 9.7 mph 24.1 mph 80 % 0.0 in
01:02 -3.9 °F -6.8 °F 1030.7 in NNE 17.7 mph 24.1 mph 80 % 0.0 in
01:07 -4.1 °F -7.0 °F 1030.7 in NNW 4.8 mph 29.0 mph 80 % 0.0 in
01:12 -4.1 °F -6.9 °F 1030.7 in NNE 11.3 mph 29.0 mph 81 % 0.0 in
01:17 -4.1 °F -6.9 °F 1030.4 in NNE 9.7 mph 25.7 mph 81 % 0.0 in
01:22 -4.1 °F -6.9 °F 1030.7 in NNE 8.0 mph 25.7 mph 81 % 0.0 in
01:27 -4.2 °F -7.0 °F 1030.4 in North 6.4 mph 27.4 mph 81 % 0.0 in
01:32 -4.2 °F -7.0 °F 1030.4 in NNE 19.3 mph 27.4 mph 81 % 0.0 in
01:37 -4.2 °F -7.0 °F 1030.4 in North 12.9 mph 27.4 mph 81 % 0.0 in
01:42 -4.2 °F -7.0 °F 1030.4 in WNW 4.8 mph 27.4 mph 81 % 0.0 in
01:47 -4.3 °F -7.1 °F 1030.4 in NE 6.4 mph 24.1 mph 81 % 0.0 in
01:52 -4.2 °F -7.0 °F 1030.4 in NNE 11.3 mph 25.7 mph 81 % 0.0 in
01:57 -4.2 °F -7.0 °F 1030.4 in NNW 8.0 mph 27.4 mph 81 % 0.0 in
02:02 -4.3 °F -7.1 °F 1030.4 in NE 17.7 mph 27.4 mph 81 % 0.0 in
02:07 -4.4 °F -7.0 °F 1030.4 in NE 24.1 mph 27.4 mph 82 % 0.0 in
02:12 -4.3 °F -6.9 °F 1030.4 in NE 11.3 mph 25.7 mph 82 % 0.0 in
02:17 -4.3 °F -6.9 °F 1030.4 in NE 1.6 mph 25.7 mph 82 % 0.0 in
02:22 -4.3 °F -6.9 °F 1030.4 in NNE 9.7 mph 25.7 mph 82 % 0.0 in
02:27 -4.4 °F -7.0 °F 1030.4 in NE 14.5 mph 25.7 mph 82 % 0.0 in
02:32 -4.4 °F -7.0 °F 1030.4 in North 9.7 mph 25.7 mph 82 % 0.0 in
02:37 -4.4 °F -7.0 °F 1030.4 in NNE 9.7 mph 20.9 mph 82 % 0.0 in
02:42 -4.4 °F -7.0 °F 1030.4 in NNE 12.9 mph 24.1 mph 82 % 0.0 in
02:47 -4.4 °F -7.0 °F 1030.4 in North 3.2 mph 25.7 mph 82 % 0.0 in
02:52 -4.4 °F -7.0 °F 1030.4 in NNE 6.4 mph 25.7 mph 82 % 0.0 in
02:57 -4.4 °F -7.0 °F 1030.4 in NNE 9.7 mph 25.7 mph 82 % 0.0 in
03:02 -4.4 °F -7.0 °F 1030.4 in North 8.0 mph 24.1 mph 82 % 0.0 in
03:12 -4.4 °F -7.0 °F 1030.4 in NNW 3.2 mph 24.1 mph 82 % 0.0 in
03:17 -4.5 °F -7.1 °F 1030.4 in NNE 11.3 mph 24.1 mph 82 % 0.0 in
03:22 -4.5 °F -7.1 °F 1030.4 in NE 3.2 mph 24.1 mph 82 % 0.0 in
03:32 -4.6 °F -7.0 °F 1030.4 in NNW 3.2 mph 25.7 mph 83 % 0.0 in
03:37 -4.6 °F -7.0 °F 1030.4 in NNE 17.7 mph 33.8 mph 83 % 0.0 in
03:42 -4.6 °F -7.0 °F 1030.0 in NE 1.6 mph 33.8 mph 83 % 0.0 in
03:52 -4.6 °F -7.0 °F 1030.0 in NNE 8.0 mph 29.0 mph 83 % 0.0 in
03:57 -4.6 °F -7.0 °F 1030.0 in North 12.9 mph 24.1 mph 83 % 0.0 in
04:02 -4.6 °F -7.0 °F 1030.0 in NNE 8.0 mph 24.1 mph 83 % 0.0 in
04:12 -4.7 °F -7.1 °F 1030.0 in North 3.2 mph 20.9 mph 83 % 0.0 in
04:17 -4.7 °F -7.0 °F 1030.0 in North 3.2 mph 16.1 mph 84 % 0.0 in
04:22 -4.7 °F -7.0 °F 1030.0 in NE 8.0 mph 22.5 mph 84 % 0.0 in
04:27 -4.8 °F -7.1 °F 1030.0 in NNE 6.4 mph 24.1 mph 84 % 0.0 in
04:32 -4.8 °F -7.1 °F 1030.0 in North 4.8 mph 24.1 mph 84 % 0.0 in
04:37 -4.9 °F -7.2 °F 1029.7 in North 8.0 mph 24.1 mph 84 % 0.0 in
04:42 -4.9 °F -7.2 °F 1029.7 in NNE 16.1 mph 19.3 mph 84 % 0.0 in
04:47 -4.9 °F -7.2 °F 1029.7 in WNW 4.8 mph 22.5 mph 84 % 0.0 in
04:52 -4.8 °F -7.1 °F 1029.7 in NNW 9.7 mph 22.5 mph 84 % 0.0 in
05:02 -4.9 °F -7.2 °F 1029.7 in NE 11.3 mph 25.7 mph 84 % 0.0 in
05:12 -4.8 °F -7.1 °F 1029.7 in NNE 12.9 mph 24.1 mph 84 % 0.0 in
05:17 -4.9 °F -7.2 °F 1029.7 in NW 6.4 mph 22.5 mph 84 % 0.0 in
05:22 -4.9 °F -7.2 °F 1029.7 in NNE 9.7 mph 22.5 mph 84 % 0.0 in
05:27 -4.9 °F -7.2 °F 1029.7 in NNE 12.9 mph 27.4 mph 84 % 0.0 in
05:32 -4.9 °F -7.2 °F 1029.7 in NNE 8.0 mph 27.4 mph 84 % 0.0 in
05:37 -4.9 °F -7.0 °F 1029.7 in NW 4.8 mph 25.7 mph 85 % 0.0 in
05:42 -4.9 °F -7.0 °F 1029.7 in NNW 4.8 mph 25.7 mph 85 % 0.0 in
05:47 -5.0 °F -7.1 °F 1029.7 in NNE 4.8 mph 25.7 mph 85 % 0.0 in
05:52 -5.0 °F -7.1 °F 1029.7 in NNE 4.8 mph 25.7 mph 85 % 0.0 in
05:57 -5.1 °F -7.2 °F 1029.7 in North 8.0 mph 25.7 mph 85 % 0.0 in
06:02 -5.1 °F -7.2 °F 1029.7 in NNW 4.8 mph 25.7 mph 85 % 0.0 in
06:07 -5.1 °F -7.2 °F 1029.7 in NNE 8.0 mph 19.3 mph 85 % 0.0 in
06:12 -5.1 °F -7.2 °F 1030.0 in NE 3.2 mph 19.3 mph 85 % 0.0 in
06:17 -5.1 °F -7.2 °F 1029.7 in North 4.8 mph 19.3 mph 85 % 0.0 in
06:27 -5.1 °F -7.2 °F 1030.0 in NE 8.0 mph 17.7 mph 85 % 0.0 in
06:32 -5.1 °F -7.2 °F 1030.0 in North 8.0 mph 17.7 mph 85 % 0.0 in
06:37 -5.2 °F -7.3 °F 1029.7 in North 1.6 mph 16.1 mph 85 % 0.0 in
06:42 -5.1 °F -7.2 °F 1030.0 in NNW 1.6 mph 16.1 mph 85 % 0.0 in
06:52 -5.2 °F -7.3 °F 1030.0 in North 3.2 mph 17.7 mph 85 % 0.0 in
06:57 -5.2 °F -7.3 °F 1030.0 in North 3.2 mph 17.7 mph 85 % 0.0 in
07:02 -5.1 °F -7.2 °F 1030.0 in Calm   17.7 mph 85 % 0.0 in
07:07 -5.2 °F -7.3 °F 1030.0 in North 17.7 mph 20.9 mph 85 % 0.0 in
07:12 -5.1 °F -7.2 °F 1030.0 in NNE 17.7 mph 20.9 mph 85 % 0.0 in
07:17 -5.2 °F -7.3 °F 1030.0 in NNW 1.6 mph 22.5 mph 85 % 0.0 in
07:22 -5.2 °F -7.3 °F 1030.0 in NE 11.3 mph 22.5 mph 85 % 0.0 in
07:27 -5.2 °F -7.3 °F 1030.0 in NNW 1.6 mph 20.9 mph 85 % 0.0 in
07:32 -5.2 °F -7.3 °F 1030.4 in NNE 3.2 mph 20.9 mph 85 % 0.0 in
07:37 -5.1 °F -7.2 °F 1030.4 in ENE 1.6 mph 20.9 mph 85 % 0.0 in
07:42 -5.2 °F -7.3 °F 1030.4 in NE 3.2 mph 20.9 mph 85 % 0.0 in
07:52 -5.2 °F -7.3 °F 1030.4 in NE 20.9 mph 20.9 mph 85 % 0.0 in
07:57 -5.1 °F -7.2 °F 1030.0 in NNE 4.8 mph 19.3 mph 85 % 0.0 in
08:02 -5.1 °F -7.2 °F 1030.4 in North 11.3 mph 19.3 mph 85 % 0.0 in
08:12 -5.1 °F -7.4 °F 1030.4 in NNW 3.2 mph 24.1 mph 84 % 0.0 in
08:17 -5.2 °F -7.5 °F 1030.4 in NNW 1.6 mph 20.9 mph 84 % 0.0 in
08:22 -5.1 °F -7.2 °F 1030.4 in North 3.2 mph 20.9 mph 85 % 0.0 in
08:32 -5.1 °F -7.4 °F 1030.4 in NE 1.6 mph 20.9 mph 84 % 0.0 in
08:37 -5.1 °F -7.4 °F 1030.4 in NE 19.3 mph 24.1 mph 84 % 0.0 in
08:42 -5.1 °F -7.4 °F 1030.4 in NW 4.8 mph 24.1 mph 84 % 0.0 in
08:47 -5.1 °F -7.4 °F 1030.4 in North 8.0 mph 20.9 mph 84 % 0.0 in
08:52 -5.1 °F -7.4 °F 1030.4 in NNE 8.0 mph 20.9 mph 84 % 0.0 in
08:57 -5.0 °F -7.3 °F 1030.4 in NNE 9.7 mph 22.5 mph 84 % 0.0 in
09:02 -4.9 °F -7.2 °F 1030.4 in NNW 9.7 mph 22.5 mph 84 % 0.0 in
09:12 -4.8 °F -7.1 °F 1030.7 in NNW 3.2 mph 24.1 mph 84 % 0.0 in
09:17 -4.7 °F -7.1 °F 1030.7 in NE 11.3 mph 25.7 mph 83 % 0.0 in
09:22 -4.6 °F -7.0 °F 1030.7 in NNE 16.1 mph 25.7 mph 83 % 0.0 in
09:27 -4.6 °F -7.0 °F 1030.7 in NE 9.7 mph 25.7 mph 83 % 0.0 in
09:32 -4.5 °F -7.1 °F 1030.7 in NE 8.0 mph 25.7 mph 82 % 0.0 in
09:37 -4.4 °F -6.8 °F 1030.7 in ENE 14.5 mph 25.7 mph 83 % 0.0 in
09:42 -4.3 °F -6.9 °F 1030.7 in NE 16.1 mph 25.7 mph 82 % 0.0 in
09:47 -4.3 °F -6.9 °F 1030.7 in NE 11.3 mph 29.0 mph 82 % 0.0 in
09:52 -4.2 °F -6.8 °F 1030.7 in NE 9.7 mph 29.0 mph 82 % 0.0 in
09:57 -4.1 °F -6.9 °F 1030.7 in North 1.6 mph 29.0 mph 81 % 0.0 in
10:02 -4.1 °F -6.9 °F 1030.7 in NNE 27.4 mph 29.0 mph 81 % 0.0 in
10:12 -3.9 °F -6.7 °F 1030.7 in East 4.8 mph 29.0 mph 81 % 0.0 in
10:17 -3.9 °F -6.7 °F 1030.7 in NE 17.7 mph 29.0 mph 81 % 0.0 in
10:22 -3.9 °F -6.7 °F 1030.7 in NE 11.3 mph 29.0 mph 81 % 0.0 in
10:32 -3.7 °F -6.5 °F 1030.7 in NE 16.1 mph 32.2 mph 81 % 0.0 in
10:37 -3.7 °F -6.6 °F 1030.7 in ENE 27.4 mph 33.8 mph 80 % 0.0 in
10:42 -3.6 °F -6.4 °F 1030.7 in NE 22.5 mph 33.8 mph 81 % 0.0 in
10:47 -3.6 °F -6.5 °F 1030.7 in NE 20.9 mph 35.4 mph 80 % 0.0 in
10:52 -3.4 °F -6.2 °F 1030.7 in NNE 17.7 mph 35.4 mph 81 % 0.0 in
11:02 -3.4 °F -6.4 °F 1030.7 in NNE 27.4 mph 38.6 mph 80 % 0.0 in
11:07 -3.3 °F -6.3 °F 1030.7 in NNE 12.9 mph 38.6 mph 80 % 0.0 in
11:12 -3.2 °F -6.0 °F 1030.7 in NE 20.9 mph 38.6 mph 81 % 0.0 in
11:17 -3.2 °F -6.3 °F 1030.7 in NE 32.2 mph 35.4 mph 79 % 0.0 in
11:22 -3.2 °F -6.3 °F 1030.7 in NNE 33.8 mph 38.6 mph 79 % 0.0 in
11:32 -3.2 °F -6.2 °F 1030.7 in NE 24.1 mph 41.8 mph 80 % 0.0 in
11:37 -3.2 °F -6.2 °F 1030.7 in NNE 22.5 mph 41.8 mph 80 % 0.0 in
11:42 -3.2 °F -6.3 °F 1031.0 in NE 16.1 mph 38.6 mph 79 % 0.0 in
11:47 -3.1 °F -6.1 °F 1031.0 in ENE 9.7 mph 30.6 mph 80 % 0.0 in
11:52 -3.1 °F -6.2 °F 1030.7 in NE 16.1 mph 30.6 mph 79 % 0.0 in
11:57 -2.9 °F -6.0 °F 1030.7 in NE 22.5 mph 29.0 mph 79 % 0.0 in
12:02 -2.8 °F -5.9 °F 1030.7 in NNE 22.5 mph 27.4 mph 79 % 0.0 in
12:07 -2.8 °F -5.9 °F 1030.7 in NE 24.1 mph 27.4 mph 79 % 0.0 in
12:12 -2.8 °F -6.1 °F 1030.4 in North 24.1 mph 27.4 mph 78 % 0.0 in
12:17 -2.7 °F -6.0 °F 1030.4 in NE 12.9 mph 27.4 mph 78 % 0.0 in
12:22 -2.7 °F -6.0 °F 1030.4 in ENE 17.7 mph 29.0 mph 78 % 0.0 in
12:27 -2.7 °F -5.8 °F 1030.4 in NNE 22.5 mph 29.0 mph 79 % 0.0 in
12:32 -2.6 °F -5.7 °F 1030.4 in NE 12.9 mph 29.0 mph 79 % 0.0 in
12:37 -2.6 °F -5.7 °F 1030.4 in North 19.3 mph 29.0 mph 79 % 0.0 in
12:47 -2.6 °F -5.7 °F 1030.4 in NNE 6.4 mph 29.0 mph 79 % 0.0 in
12:52 -2.4 °F -5.7 °F 1030.4 in NE 17.7 mph 29.0 mph 78 % 0.0 in
12:57 -2.2 °F -5.5 °F 1030.0 in NNE 22.5 mph 32.2 mph 78 % 0.0 in
13:02 -2.2 °F -5.7 °F 1030.0 in NNE 12.9 mph 32.2 mph 77 % 0.0 in
13:07 -2.2 °F -5.9 °F 1030.0 in North 9.7 mph 27.4 mph 76 % 0.0 in
13:12 -2.1 °F -5.6 °F 1030.0 in ENE 3.2 mph 25.7 mph 77 % 0.0 in
13:17 -1.9 °F -5.4 °F 1030.0 in NNE 17.7 mph 25.7 mph 77 % 0.0 in
13:22 -1.6 °F -4.9 °F 1030.4 in NNE 17.7 mph 24.1 mph 78 % 0.0 in
13:32 -1.6 °F -5.4 °F 1030.0 in ENE 19.3 mph 27.4 mph 75 % 0.0 in
13:37 -1.7 °F -5.5 °F 1030.0 in NE 27.4 mph 29.0 mph 75 % 0.0 in
13:42 -1.8 °F -5.5 °F 1029.7 in ENE 11.3 mph 38.6 mph 76 % 0.0 in
13:47 -1.8 °F -5.5 °F 1029.7 in North 22.5 mph 38.6 mph 76 % 0.0 in
13:52 -1.8 °F -5.6 °F 1029.7 in NNE 22.5 mph 38.6 mph 75 % 0.0 in
13:57 -1.6 °F -5.1 °F 1029.7 in NNE 19.3 mph 35.4 mph 77 % 0.0 in
14:02 -1.5 °F -5.0 °F 1029.7 in ENE 17.7 mph 32.2 mph 77 % 0.0 in
14:07 -1.4 °F -5.3 °F 1029.7 in ENE 9.7 mph 30.6 mph 75 % 0.0 in
14:12 -1.3 °F -5.0 °F 1029.7 in NE 16.1 mph 30.6 mph 76 % 0.0 in
14:17 -1.1 °F -5.0 °F 1029.7 in NE 16.1 mph 30.6 mph 75 % 0.0 in
14:22 -0.9 °F -4.8 °F 1029.7 in NNE 9.7 mph 20.9 mph 75 % 0.0 in
14:32 -0.9 °F -4.8 °F 1029.7 in NNE 12.9 mph 32.2 mph 75 % 0.0 in
14:37 -1.0 °F -5.0 °F 1029.7 in East 11.3 mph 32.2 mph 74 % 0.0 in
14:42 -1.0 °F -4.9 °F 1030.0 in NE 11.3 mph 29.0 mph 75 % 0.0 in
14:47 -1.0 °F -4.9 °F 1029.7 in ENE 14.5 mph 29.0 mph 75 % 0.0 in
14:52 -1.1 °F -5.1 °F 1029.7 in NE 16.1 mph 29.0 mph 74 % 0.0 in
14:57 -1.1 °F -5.1 °F 1029.7 in NNE 11.3 mph 29.0 mph 74 % 0.0 in
15:02 -0.8 °F -4.7 °F 1030.0 in NE 14.5 mph 29.0 mph 75 % 0.0 in
15:12 -0.6 °F -4.5 °F 1030.0 in NNE 11.3 mph 32.2 mph 75 % 0.0 in
15:17 -0.6 °F -4.8 °F 1030.0 in NE 12.9 mph 32.2 mph 73 % 0.0 in
15:22 -0.6 °F -4.8 °F 1030.0 in NE 6.4 mph 32.2 mph 73 % 0.0 in
15:27 -0.6 °F -4.7 °F 1030.0 in ENE 17.7 mph 32.2 mph 74 % 0.0 in
15:32 -0.6 °F -4.7 °F 1030.0 in NNE 14.5 mph 33.8 mph 74 % 0.0 in
15:37 -0.5 °F -4.7 °F 1029.7 in NNE 19.3 mph 33.8 mph 73 % 0.0 in
15:42 -0.4 °F -4.8 °F 1030.0 in ENE 20.9 mph 33.8 mph 72 % 0.0 in
15:47 -0.4 °F -5.0 °F 1030.0 in NE 19.3 mph 32.2 mph 71 % 0.0 in
15:52 -0.4 °F -4.6 °F 1030.0 in NNE 24.1 mph 30.6 mph 73 % 0.0 in
15:57 -0.4 °F -5.0 °F 1030.0 in NE 17.7 mph 33.8 mph 71 % 0.0 in
16:02 -0.4 °F -4.8 °F 1030.0 in NE 11.3 mph 33.8 mph 72 % 0.0 in
16:07 -0.4 °F -5.0 °F 1030.0 in NE 16.1 mph 33.8 mph 71 % 0.0 in
16:12 -0.4 °F -4.8 °F 1030.0 in NNE 12.9 mph 32.2 mph 72 % 0.0 in
16:17 -0.4 °F -5.0 °F 1030.0 in NE 17.7 mph 32.2 mph 71 % 0.0 in
16:32 -0.4 °F -4.8 °F 1030.0 in NE 8.0 mph 30.6 mph 72 % 0.0 in
16:37 -0.4 °F -4.8 °F 1030.0 in NNE 16.1 mph 30.6 mph 72 % 0.0 in
16:42 -0.4 °F -4.8 °F 1030.4 in NE 16.1 mph 30.6 mph 72 % 0.0 in
16:47 -0.4 °F -4.8 °F 1030.4 in NNE 16.1 mph 29.0 mph 72 % 0.0 in
16:52 -0.4 °F -4.8 °F 1030.4 in NE 16.1 mph 32.2 mph 72 % 0.0 in
17:02 -0.5 °F -4.9 °F 1030.4 in NE 20.9 mph 32.2 mph 72 % 0.0 in
17:12 -0.7 °F -5.1 °F 1030.4 in NE 9.7 mph 29.0 mph 72 % 0.0 in
17:17 -0.8 °F -5.2 °F 1030.4 in NE 16.1 mph 29.0 mph 72 % 0.0 in
17:32 -0.9 °F -5.3 °F 1030.4 in NNE 19.3 mph 25.7 mph 72 % 0.0 in
17:37 -1.0 °F -5.4 °F 1030.4 in NNE 11.3 mph 25.7 mph 72 % 0.0 in
17:42 -1.1 °F -5.3 °F 1030.4 in NE 16.1 mph 22.5 mph 73 % 0.0 in
17:47 -1.1 °F -5.3 °F 1030.4 in NE 11.3 mph 22.5 mph 73 % 0.0 in
17:52 -1.2 °F -5.4 °F 1030.4 in North 9.7 mph 22.5 mph 73 % 0.0 in
18:02 -1.2 °F -5.6 °F 1030.4 in NE 17.7 mph 29.0 mph 72 % 0.0 in
18:07 -1.2 °F -5.4 °F 1030.4 in NE 14.5 mph 29.0 mph 73 % 0.0 in
18:12 -1.3 °F -5.5 °F 1030.4 in NNE 11.3 mph 27.4 mph 73 % 0.0 in
18:17 -1.4 °F -5.4 °F 1030.4 in NE 9.7 mph 27.4 mph 74 % 0.0 in
18:22 -1.4 °F -5.6 °F 1030.4 in NNE 12.9 mph 25.7 mph 73 % 0.0 in
18:27 -1.4 °F -5.4 °F 1030.4 in NNE 6.4 mph 25.7 mph 74 % 0.0 in
18:32 -1.5 °F -5.5 °F 1030.4 in NE 8.0 mph 20.9 mph 74 % 0.0 in
18:37 -1.6 °F -5.6 °F 1030.4 in NNE 9.7 mph 20.9 mph 74 % 0.0 in
18:42 -1.6 °F -5.6 °F 1030.4 in North 16.1 mph 20.9 mph 74 % 0.0 in
18:47 -1.7 °F -5.5 °F 1030.7 in NE 11.3 mph 19.3 mph 75 % 0.0 in
18:52 -1.7 °F -5.5 °F 1030.7 in NE 4.8 mph 19.3 mph 75 % 0.0 in
18:57 -1.7 °F -5.5 °F 1030.7 in NNE 4.8 mph 19.3 mph 75 % 0.0 in
19:02 -1.7 °F -5.5 °F 1030.7 in NE 9.7 mph 24.1 mph 75 % 0.0 in
19:07 -1.8 °F -5.6 °F 1030.7 in NE 8.0 mph 24.1 mph 75 % 0.0 in
19:12 -1.9 °F -5.7 °F 1030.7 in North 9.7 mph 24.1 mph 75 % 0.0 in
19:17 -1.9 °F -5.7 °F 1030.7 in NNE 12.9 mph 17.7 mph 75 % 0.0 in
19:22 -1.9 °F -5.7 °F 1030.7 in NNE 9.7 mph 19.3 mph 75 % 0.0 in
19:32 -2.0 °F -5.7 °F 1030.7 in ENE 3.2 mph 22.5 mph 76 % 0.0 in
19:37 -2.1 °F -5.8 °F 1030.7 in North 8.0 mph 19.3 mph 76 % 0.0 in
19:42 -2.1 °F -5.8 °F 1030.7 in NE 12.9 mph 17.7 mph 76 % 0.0 in
19:47 -2.2 °F -5.9 °F 1030.7 in North 9.7 mph 19.3 mph 76 % 0.0 in
19:52 -2.3 °F -5.8 °F 1030.7 in NE 11.3 mph 19.3 mph 77 % 0.0 in
19:57 -2.3 °F -5.8 °F 1030.7 in NNW 6.4 mph 19.3 mph 77 % 0.0 in
20:02 -2.3 °F -5.8 °F 1030.7 in NNE 12.9 mph 17.7 mph 77 % 0.0 in
20:12 -2.4 °F -5.9 °F 1030.7 in NNE 6.4 mph 19.3 mph 77 % 0.0 in
20:17 -2.4 °F -5.9 °F 1030.7 in NNE 4.8 mph 19.3 mph 77 % 0.0 in
20:22 -2.5 °F -6.0 °F 1030.7 in NE 14.5 mph 19.3 mph 77 % 0.0 in
20:27 -2.5 °F -6.0 °F 1030.7 in NNE 6.4 mph 19.3 mph 77 % 0.0 in
20:32 -2.5 °F -6.0 °F 1030.7 in NE 9.7 mph 19.3 mph 77 % 0.0 in
20:37 -2.6 °F -6.1 °F 1030.7 in North 9.7 mph 16.1 mph 77 % 0.0 in
20:42 -2.6 °F -5.9 °F 1030.4 in NNE 4.8 mph 16.1 mph 78 % 0.0 in
20:52 -2.8 °F -6.1 °F 1030.7 in NNE 11.3 mph 16.1 mph 78 % 0.0 in
20:57 -2.9 °F -6.2 °F 1030.4 in NNE 1.6 mph 12.9 mph 78 % 0.0 in
21:02 -3.0 °F -6.1 °F 1030.4 in NE 6.4 mph 12.9 mph 79 % 0.0 in
21:07 -3.1 °F -6.2 °F 1030.4 in North 4.8 mph 12.9 mph 79 % 0.0 in
21:12 -3.0 °F -6.1 °F 1030.4 in NE 11.3 mph 16.1 mph 79 % 0.0 in
21:17 -3.1 °F -6.2 °F 1030.4 in NNE 8.0 mph 16.1 mph 79 % 0.0 in
21:22 -3.1 °F -6.2 °F 1030.4 in NNE 3.2 mph 16.1 mph 79 % 0.0 in
21:27 -3.1 °F -6.2 °F 1030.7 in East 1.6 mph 14.5 mph 79 % 0.0 in
21:32 -3.1 °F -6.2 °F 1030.4 in NNW 4.8 mph 14.5 mph 79 % 0.0 in
21:37 -3.1 °F -6.2 °F 1030.7 in WNW 3.2 mph 14.5 mph 79 % 0.0 in
21:42 -3.1 °F -6.2 °F 1030.7 in Calm   22.5 mph 79 % 0.0 in
21:47 -3.2 °F -6.3 °F 1030.7 in NNE 12.9 mph 22.5 mph 79 % 0.0 in
21:52 -3.2 °F -6.3 °F 1030.7 in Calm   16.1 mph 79 % 0.0 in
21:57 -3.3 °F -6.4 °F 1030.7 in NNE 3.2 mph 16.1 mph 79 % 0.0 in
22:02 -3.4 °F -6.4 °F 1030.7 in Calm   16.1 mph 80 % 0.0 in
22:12 -3.4 °F -6.4 °F 1030.4 in NNE 1.6 mph 14.5 mph 80 % 0.0 in
22:17 -3.5 °F -6.4 °F 1030.4 in Calm   14.5 mph 80 % 0.0 in
22:27 -3.7 °F -6.6 °F 1030.7 in Calm   9.7 mph 80 % 0.0 in
22:32 -3.8 °F -6.6 °F 1030.4 in Calm   8.0 mph 81 % 0.0 in
22:37 -3.8 °F -6.6 °F 1030.7 in NE 1.6 mph 8.0 mph 81 % 0.0 in
22:42 -3.9 °F -6.7 °F 1030.4 in Calm   8.0 mph 81 % 0.0 in
22:47 -4.0 °F -6.6 °F 1030.4 in North 1.6 mph 8.0 mph 82 % 0.0 in
22:52 -4.2 °F -6.8 °F 1030.4 in NNE 1.6 mph 6.4 mph 82 % 0.0 in
23:02 -4.3 °F -6.9 °F 1030.4 in NNE 1.6 mph 6.4 mph 82 % 0.0 in
23:12 -4.3 °F -6.8 °F 1030.4 in Calm   4.8 mph 83 % 0.0 in
23:17 -4.3 °F -6.8 °F 1030.4 in North 3.2 mph 8.0 mph 83 % 0.0 in
23:22 -4.3 °F -6.9 °F 1030.4 in NNE 3.2 mph 8.0 mph 82 % 0.0 in
23:32 -4.4 °F -6.8 °F 1030.4 in NNW 3.2 mph 8.0 mph 83 % 0.0 in
23:37 -4.5 °F -6.9 °F 1030.4 in NNW 6.4 mph 9.7 mph 83 % 0.0 in
23:42 -4.6 °F -7.0 °F 1030.4 in Calm   9.7 mph 83 % 0.0 in
23:47 -4.6 °F -7.0 °F 1030.4 in North 1.6 mph 9.7 mph 83 % 0.0 in
23:52 -4.5 °F -6.9 °F 1030.0 in NE 8.0 mph 16.1 mph 83 % 0.0 in
23:57 -4.5 °F -6.9 °F 1030.4 in NNW 3.2 mph 16.1 mph 83 % 0.0 in
Meteo18
Compliments of Weather Underground - 4 mb

Script developed by  Jim McMurry - jmcmurry@mwt.net Adapted for the template by  Wim van der Kuil - Leuven-Template.eu

You find our weather info also at:

European Weather Network

Weather Underground

Equipment we use:

Weather-station
Davis Vue

Weather-program
Meteobridge

Weather-server
Raspberry PI 2 B+

Provider
1 and 1

Davis Vue

Meteobridge

Raspberry PI 2 B+

1 and 1